Time;durP1;ratioP1;P1;durP2;ratioP2;P2;SDS_P1;SDS_P2;PMS_P1;PMS_P2;Temp;Humidity;BMP_temperature;BMP_pressure;BME280_temperature;BME280_humidity;BME280_pressure;Samples;Min_cycle;Max_cycle;Signal;HPM_P1;HPM_P2
2022/12/29 00:02:20;;;;;;;4.70;4.25;;;;;;;8.21;81.41;99847.23;2889225;79;21034;-87
2022/12/29 00:06:22;;;;;;;6.75;4.75;;;;;;;8.20;81.61;99844.69;2943264;79;21034;-89
2022/12/29 00:10:23;;;;;;;5.58;4.72;;;;;;;8.05;82.33;99825.55;2912551;80;21027;-90
2022/12/29 00:18:45;;;;;;;6.45;3.77;;;;;;;8.09;82.27;99821.69;2945869;79;21010;-90
2022/12/29 00:35:56;;;;;;;8.20;4.90;;;;;;;8.18;80.39;99793.63;2885158;81;20130;-89
2022/12/29 00:44:17;;;;;;;7.22;4.67;;;;;;;8.22;80.69;99784.47;2885897;81;22367;-89
2022/12/29 00:49:29;;;;;;;6.62;4.70;;;;;;;8.13;80.66;99771.00;2839968;83;21025;-89
2022/12/29 00:52:22;;;;;;;5.72;4.45;;;;;;;8.04;81.19;99775.69;2875989;81;21036;-89
2022/12/29 00:56:23;;;;;;;8.20;5.35;;;;;;;8.04;81.21;99773.05;2865429;80;21073;-90
2022/12/29 01:00:24;;;;;;;5.47;3.95;;;;;;;7.93;81.56;99769.92;2900127;79;20999;-89
2022/12/29 01:04:26;;;;;;;7.05;4.90;;;;;;;7.86;81.78;99764.30;2977891;79;21046;-88
2022/12/29 01:08:29;;;;;;;7.78;4.03;;;;;;;7.97;81.51;99763.45;2947965;77;21085;-88
2022/12/29 01:12:44;;;;;;;5.15;3.15;;;;;;;7.89;81.33;99751.77;2978648;78;21046;-89
2022/12/29 01:16:46;;;;;;;5.62;3.60;;;;;;;7.90;81.22;99748.16;2989499;78;21007;-89
2022/12/29 01:20:48;;;;;;;7.47;4.00;;;;;;;7.88;80.71;99747.44;2964009;78;21042;-88
2022/12/29 01:24:49;;;;;;;3.80;3.22;;;;;;;7.93;80.07;99739.47;2908859;80;21655;-89
2022/12/29 01:28:51;;;;;;;9.05;3.35;;;;;;;7.95;79.88;99742.01;2984407;78;21007;-89
2022/12/29 01:32:52;;;;;;;4.75;3.20;;;;;;;7.94;79.65;99744.30;2919457;78;21009;-89
2022/12/29 01:36:53;;;;;;;5.00;3.27;;;;;;;7.96;79.58;99738.39;2986770;78;21042;-90
2022/12/29 01:40:54;;;;;;;6.70;3.27;;;;;;;7.99;79.46;99736.35;2976063;79;20991;-89
2022/12/29 01:45:00;;;;;;;3.10;2.80;;;;;;;8.00;79.06;99729.23;2976103;78;21542;-90
2022/12/29 01:49:24;;;;;;;4.33;3.42;;;;;;;8.02;78.77;99729.13;2996349;78;21034;-89
2022/12/29 01:53:30;;;;;;;3.67;3.37;;;;;;;8.05;78.70;99716.95;2960700;78;21051;-89
2022/12/29 01:57:38;;;;;;;3.02;2.30;;;;;;;8.10;78.36;99709.00;2984112;78;21042;-90
2022/12/29 02:01:39;;;;;;;4.20;2.85;;;;;;;8.17;77.80;99711.14;2977851;78;20963;-89
2022/12/29 02:05:58;;;;;;;5.28;2.50;;;;;;;8.21;77.59;99710.77;2917075;79;21093;-89
2022/12/29 02:10:01;;;;;;;4.60;2.70;;;;;;;8.23;77.18;99696.91;2880930;81;21007;-90
2022/12/29 02:14:12;;;;;;;4.53;2.47;;;;;;;8.24;76.92;99696.41;2949509;78;21133;-90
2022/12/29 02:18:40;;;;;;;4.78;2.83;;;;;;;8.24;76.88;99681.84;2949257;77;20994;-90
2022/12/29 02:23:06;;;;;;;4.15;2.20;;;;;;;8.28;76.79;99683.30;2949068;78;21019;-90
2022/12/29 02:27:57;;;;;;;2.50;2.30;;;;;;;8.22;77.06;99680.66;2929116;78;21014;-91
2022/12/29 02:32:28;;;;;;;4.90;3.10;;;;;;;8.24;76.77;99692.44;2955701;79;20970;-89
2022/12/29 02:36:47;;;;;;;4.85;3.22;;;;;;;8.30;76.61;99695.94;2947937;78;21009;-90
2022/12/29 02:40:59;;;;;;;4.22;3.15;;;;;;;8.36;76.44;99694.09;2959521;79;21041;-90
2022/12/29 02:45:24;;;;;;;3.45;2.77;;;;;;;8.27;76.02;99685.59;2954874;78;21011;-90
2022/12/29 02:49:42;;;;;;;3.50;2.45;;;;;;;8.33;75.89;99691.70;2936102;79;20980;-91
2022/12/29 02:58:21;;;;;;;3.72;2.30;;;;;;;8.48;76.71;99692.74;2897088;79;21027;-90
2022/12/29 03:02:39;;;;;;;3.00;2.65;;;;;;;8.50;76.72;99697.45;2940243;78;21586;-90
2022/12/29 03:06:51;;;;;;;4.72;2.40;;;;;;;8.54;76.10;99693.58;2926896;78;21011;-90
2022/12/29 03:11:03;;;;;;;5.05;2.62;;;;;;;8.58;76.24;99702.95;2936700;79;21118;-89
2022/12/29 03:19:40;;;;;;;3.17;2.45;;;;;;;8.54;75.11;99694.91;2949204;78;21083;-90
2022/12/29 03:23:47;;;;;;;3.77;2.90;;;;;;;8.57;74.88;99677.41;2939632;79;21031;-89
2022/12/29 03:28:05;;;;;;;3.00;2.72;;;;;;;8.64;74.95;99689.18;2924419;79;21031;-89
2022/12/29 03:32:10;;;;;;;3.67;2.02;;;;;;;8.59;74.64;99682.60;2952536;78;21039;-90
2022/12/29 03:36:20;;;;;;;2.45;2.00;;;;;;;8.58;74.78;99671.14;2884357;79;21570;-90
2022/12/29 03:40:23;;;;;;;6.33;3.08;;;;;;;8.60;74.56;99673.17;2916061;79;21058;-90
2022/12/29 03:44:36;;;;;;;5.37;2.15;;;;;;;8.57;74.69;99676.09;2957956;79;21051;-90
2022/12/29 03:48:37;;;;;;;3.98;3.12;;;;;;;8.53;74.96;99670.69;2924515;79;21047;-90
2022/12/29 03:52:38;;;;;;;3.85;2.22;;;;;;;8.53;75.30;99660.09;2930465;79;21055;-88
2022/12/29 03:56:40;;;;;;;2.42;1.87;;;;;;;8.54;75.04;99661.77;2935728;79;21081;-88
2022/12/29 04:00:41;;;;;;;6.85;2.67;;;;;;;8.54;74.88;99658.62;2939138;79;21003;-88
2022/12/29 04:04:42;;;;;;;3.15;2.95;;;;;;;8.63;74.85;99657.52;2960656;79;20965;-88
2022/12/29 04:08:43;;;;;;;3.95;2.65;;;;;;;8.62;75.04;99651.35;2932683;79;21285;-88
2022/12/29 04:12:46;;;;;;;6.60;3.25;;;;;;;8.60;74.98;99656.45;2957433;79;21083;-88
2022/12/29 04:16:47;;;;;;;4.28;2.98;;;;;;;8.61;75.29;99660.78;2945461;78;20991;-88
2022/12/29 04:21:00;;;;;;;5.10;2.33;;;;;;;8.65;74.96;99659.08;2943838;79;21026;-87
2022/12/29 04:25:02;;;;;;;4.40;2.95;;;;;;;8.64;74.40;99662.67;2939139;80;21034;-88
2022/12/29 04:29:03;;;;;;;4.03;2.22;;;;;;;8.70;74.63;99648.91;2908824;80;21035;-89
2022/12/29 04:33:05;;;;;;;3.62;3.33;;;;;;;8.79;74.39;99649.09;2867332;81;21101;-89
2022/12/29 04:37:07;;;;;;;5.72;3.52;;;;;;;8.77;74.57;99641.75;2916663;79;21038;-90
2022/12/29 04:41:08;;;;;;;3.62;2.72;;;;;;;8.71;74.73;99638.66;2821492;80;21034;-91
2022/12/29 04:45:10;;;;;;;2.87;2.60;;;;;;;8.68;74.62;99634.09;2913340;80;20999;-90
2022/12/29 04:49:12;;;;;;;1.80;1.45;;;;;;;8.70;74.84;99629.50;2858110;78;21497;-90
2022/12/29 04:53:13;;;;;;;3.35;2.42;;;;;;;8.66;75.14;99620.98;2874088;81;21542;-90
2022/12/29 04:57:14;;;;;;;4.40;2.60;;;;;;;8.68;75.59;99617.72;2908570;79;21050;-91
2022/12/29 05:01:16;;;;;;;3.52;3.15;;;;;;;8.70;76.14;99621.08;2873671;80;21610;-91
2022/12/29 05:05:18;;;;;;;4.33;3.45;;;;;;;8.63;76.49;99622.54;2912966;80;21010;-92
2022/12/29 05:09:19;;;;;;;2.42;2.20;;;;;;;8.61;76.73;99615.20;2902255;80;21085;-90
2022/12/29 05:13:20;;;;;;;4.33;2.42;;;;;;;8.60;76.82;99608.73;2874238;80;21741;-90
2022/12/29 05:17:22;;;;;;;3.83;2.50;;;;;;;8.54;76.35;99608.25;2951556;79;21085;-90
2022/12/29 05:21:23;;;;;;;3.12;2.40;;;;;;;8.57;76.39;99604.52;2972112;79;20995;-91
2022/12/29 05:25:24;;;;;;;3.77;2.42;;;;;;;8.50;77.19;99599.38;2902062;80;20999;-90
2022/12/29 05:29:26;;;;;;;4.87;2.72;;;;;;;8.43;76.99;99602.50;2876557;80;20994;-90
2022/12/29 05:33:27;;;;;;;3.25;2.25;;;;;;;8.39;76.80;99615.66;2965554;79;21058;-90
2022/12/29 05:37:28;;;;;;;3.17;2.65;;;;;;;8.24;77.05;99603.68;2978553;78;20990;-90
2022/12/29 05:41:29;;;;;;;4.58;3.35;;;;;;;8.18;76.36;99602.88;2912514;79;21007;-88
2022/12/29 05:45:31;;;;;;;4.58;4.20;;;;;;;8.10;76.21;99608.80;2936752;79;20979;-89
2022/12/29 05:49:32;;;;;;;3.17;2.55;;;;;;;8.04;76.18;99609.31;2973481;79;21015;-89
2022/12/29 05:53:34;;;;;;;3.08;2.58;;;;;;;7.96;75.61;99613.92;2894393;79;21467;-89
2022/12/29 05:57:35;;;;;;;5.72;2.62;;;;;;;7.95;75.61;99606.94;2919120;79;21185;-89
2022/12/29 06:01:37;;;;;;;3.90;3.10;;;;;;;7.93;75.63;99601.75;2958513;78;21532;-88
2022/12/29 06:05:38;;;;;;;5.12;3.17;;;;;;;7.90;75.70;99590.59;2961995;80;21051;-89
2022/12/29 06:09:39;;;;;;;2.72;2.47;;;;;;;7.83;75.41;99585.78;2947314;79;20976;-88
2022/12/29 06:13:42;;;;;;;5.62;3.33;;;;;;;7.83;75.15;99590.25;2904697;79;21015;-88
2022/12/29 06:17:43;;;;;;;4.92;3.72;;;;;;;7.83;75.32;99591.08;2973823;78;21042;-88
2022/12/29 06:21:45;;;;;;;5.00;3.00;;;;;;;7.79;75.44;99600.23;2965122;79;21014;-89
2022/12/29 06:25:48;;;;;;;5.83;3.67;;;;;;;7.73;75.73;99595.45;2974684;79;21014;-88
2022/12/29 06:29:49;;;;;;;3.47;2.80;;;;;;;7.71;75.17;99591.59;2991479;78;21007;-88
2022/12/29 06:33:51;;;;;;;5.22;4.00;;;;;;;7.65;75.59;99598.72;2998771;78;20994;-88
2022/12/29 06:37:52;;;;;;;5.87;4.05;;;;;;;7.70;75.34;99601.83;2986816;78;20985;-89
2022/12/29 06:41:54;;;;;;;11.65;7.30;;;;;;;7.69;75.28;99600.64;2962370;79;21070;-88
2022/12/29 06:45:55;;;;;;;9.20;4.97;;;;;;;7.77;75.59;99609.30;2986501;78;21640;-88
2022/12/29 06:49:57;;;;;;;4.03;3.05;;;;;;;7.83;75.61;99611.43;2977826;79;21072;-88
2022/12/29 06:53:58;;;;;;;5.45;4.50;;;;;;;7.85;75.98;99614.80;2965292;78;21101;-89
2022/12/29 06:58:00;;;;;;;4.90;3.65;;;;;;;7.94;76.21;99616.67;2976939;78;20970;-88
2022/12/29 07:02:02;;;;;;;4.58;3.37;;;;;;;7.97;75.93;99610.30;2983674;78;21906;-88
2022/12/29 07:06:04;;;;;;;4.85;3.83;;;;;;;8.04;75.66;99615.44;2964814;79;20991;-88
2022/12/29 07:10:06;;;;;;;7.42;3.55;;;;;;;8.14;75.82;99604.45;2969483;78;21528;-88
2022/12/29 07:14:08;;;;;;;5.15;3.25;;;;;;;8.22;76.11;99607.80;2981508;78;21432;-89
2022/12/29 07:18:09;;;;;;;4.80;3.83;;;;;;;8.27;76.31;99607.42;2880129;80;21545;-89
2022/12/29 07:22:10;;;;;;;5.45;4.00;;;;;;;8.27;76.16;99609.58;2928700;79;20983;-89
2022/12/29 07:26:14;;;;;;;6.70;3.25;;;;;;;8.32;76.34;99607.02;2877740;80;21487;-88
2022/12/29 07:30:15;;;;;;;3.87;3.33;;;;;;;8.32;76.74;99610.52;3001500;78;20991;-89
2022/12/29 07:34:17;;;;;;;4.03;2.72;;;;;;;8.28;77.45;99605.13;2996664;78;20943;-88
2022/12/29 07:38:18;;;;;;;3.98;3.47;;;;;;;8.37;77.46;99610.15;2951996;79;20999;-89
2022/12/29 07:42:19;;;;;;;5.05;2.65;;;;;;;8.38;78.02;99613.98;2954932;79;21002;-89
2022/12/29 07:46:20;;;;;;;4.05;3.12;;;;;;;8.39;78.11;99617.48;2954008;79;20956;-89
2022/12/29 07:50:22;;;;;;;5.03;3.20;;;;;;;8.40;78.86;99616.02;2949699;78;20983;-89
2022/12/29 07:54:23;;;;;;;4.30;3.40;;;;;;;8.39;78.99;99615.66;2952134;79;21514;-88
2022/12/29 07:58:24;;;;;;;4.33;3.00;;;;;;;8.40;78.96;99616.52;2933852;79;21018;-91
2022/12/29 08:02:26;;;;;;;7.83;2.80;;;;;;;8.43;78.46;99614.42;2894932;79;21263;-93
2022/12/29 08:06:28;;;;;;;3.62;2.98;;;;;;;8.53;78.69;99621.66;2975858;78;21058;-92
2022/12/29 08:10:30;;;;;;;3.30;2.87;;;;;;;8.59;78.60;99619.80;2983283;78;21616;-90
2022/12/29 08:14:31;;;;;;;6.30;4.12;;;;;;;8.70;77.58;99611.80;2951639;78;21014;-91
2022/12/29 08:18:32;;;;;;;7.60;4.62;;;;;;;8.80;77.47;99612.32;2953524;78;21022;-88
2022/12/29 08:22:34;;;;;;;8.10;6.17;;;;;;;8.92;77.15;99613.94;2975935;78;20991;-85
2022/12/29 08:26:35;;;;;;;9.95;5.62;;;;;;;8.98;77.28;99620.03;2960297;79;20983;-85
2022/12/29 08:30:37;;;;;;;11.35;6.80;;;;;;;9.05;77.06;99623.00;2988040;78;21041;-85
2022/12/29 08:34:38;;;;;;;8.75;5.30;;;;;;;8.97;77.12;99624.98;2962375;78;21034;-85
2022/12/29 08:38:39;;;;;;;5.60;4.65;;;;;;;9.04;76.60;99627.09;2953934;79;20956;-85
2022/12/29 08:42:41;;;;;;;7.08;5.70;;;;;;;9.10;76.35;99629.24;2978154;78;21058;-85
2022/12/29 08:46:42;;;;;;;11.60;6.20;;;;;;;9.18;76.56;99622.77;2905327;80;21046;-85
2022/12/29 08:50:44;;;;;;;8.35;5.70;;;;;;;9.21;76.62;99625.66;2985545;78;21026;-85
2022/12/29 08:54:45;;;;;;;7.35;5.20;;;;;;;9.27;77.32;99623.78;2983980;79;21011;-85
2022/12/29 08:58:47;;;;;;;12.43;6.25;;;;;;;9.31;76.87;99633.16;2955376;78;21538;-85
2022/12/29 09:02:48;;;;;;;8.25;4.20;;;;;;;9.39;77.30;99639.12;2982839;78;21043;-84
2022/12/29 09:06:49;;;;;;;6.75;4.72;;;;;;;9.50;77.14;99637.71;2995331;78;21034;-84
2022/12/29 09:10:51;;;;;;;6.03;3.92;;;;;;;9.50;76.74;99635.05;2942401;79;21525;-85
2022/12/29 09:14:52;;;;;;;4.97;3.62;;;;;;;9.65;76.55;99626.72;2977695;79;21319;-85
2022/12/29 09:18:54;;;;;;;5.92;4.25;;;;;;;9.60;77.14;99635.08;2954385;79;21503;-85
2022/12/29 09:22:55;;;;;;;7.65;4.37;;;;;;;9.82;77.32;99626.03;2897177;80;21047;-85
2022/12/29 09:26:57;;;;;;;3.55;3.12;;;;;;;9.96;78.62;99629.27;2870322;80;21541;-85
2022/12/29 09:30:59;;;;;;;5.35;2.77;;;;;;;10.15;78.40;99622.64;2819661;82;21051;-85
2022/12/29 09:35:00;;;;;;;3.92;3.02;;;;;;;10.36;77.54;99620.33;2885077;81;21026;-85
2022/12/29 09:39:02;;;;;;;3.85;2.08;;;;;;;10.46;77.54;99608.90;2883726;81;20991;-85
2022/12/29 09:43:18;;;;;;;3.62;2.65;;;;;;;10.64;77.27;99597.88;2885798;80;20975;-85
2022/12/29 09:47:22;;;;;;;2.98;2.65;;;;;;;10.67;76.94;99599.40;2967032;79;21042;-85
2022/12/29 09:51:25;;;;;;;2.92;2.00;;;;;;;10.67;76.70;99598.92;2969580;78;20987;-85
2022/12/29 09:55:41;;;;;;;6.15;2.60;;;;;;;10.70;77.78;99593.31;2920825;79;21006;-89
2022/12/29 09:59:45;;;;;;;5.65;2.98;;;;;;;10.66;77.30;99607.89;2993162;78;21384;-87
2022/12/29 10:03:56;;;;;;;3.80;2.25;;;;;;;10.70;77.87;99604.42;2954249;78;21511;-89
2022/12/29 10:08:11;;;;;;;2.85;2.55;;;;;;;10.71;77.20;99605.63;2945490;79;21011;-88
2022/12/29 10:12:33;;;;;;;6.62;2.75;;;;;;;10.64;77.16;99608.52;2963449;78;21581;-87
2022/12/29 10:16:43;;;;;;;3.00;2.65;;;;;;;10.63;76.17;99601.53;2977343;78;21018;-91
2022/12/29 10:21:01;;;;;;;3.83;2.05;;;;;;;10.59;74.96;99613.41;2978880;78;20991;-91
2022/12/29 10:25:11;;;;;;;3.60;3.20;;;;;;;10.64;75.69;99611.66;2980756;78;21055;-94
2022/12/29 10:29:33;;;;;;;9.65;3.75;;;;;;;10.69;75.41;99614.24;2984061;79;21310;-88
2022/12/29 10:33:40;;;;;;;3.35;3.05;;;;;;;10.70;74.58;99625.70;2993906;79;21039;-91
2022/12/29 10:37:56;;;;;;;11.22;4.37;;;;;;;10.68;73.38;99610.39;2875787;80;21054;-90
2022/12/29 10:42:14;;;;;;;5.30;3.95;;;;;;;10.60;71.44;99603.12;2904733;80;20998;-87
2022/12/29 10:46:25;;;;;;;5.60;3.65;;;;;;;10.59;72.34;99605.43;2872853;81;21047;-88
2022/12/29 10:50:29;;;;;;;8.08;4.53;;;;;;;10.48;72.09;99614.91;2854133;82;21467;-90
2022/12/29 10:54:42;;;;;;;6.78;3.83;;;;;;;10.47;72.48;99608.73;2843389;82;21024;-89
2022/12/29 10:58:47;;;;;;;5.60;3.80;;;;;;;10.56;72.32;99604.39;2889736;81;21562;-90
2022/12/29 11:03:15;;;;;;;11.23;6.07;;;;;;;10.66;72.15;99603.89;2973520;79;20984;-90
2022/12/29 11:07:19;;;;;;;12.47;7.58;;;;;;;10.66;70.90;99593.25;2977335;77;21021;-90
2022/12/29 11:11:29;;;;;;;19.70;13.58;;;;;;;10.69;70.45;99586.31;2967451;79;20963;-89
2022/12/29 11:15:46;;;;;;;21.12;13.93;;;;;;;10.68;70.56;99579.31;2955801;78;21605;-89
2022/12/29 11:19:47;;;;;;;7.60;6.25;;;;;;;10.71;70.24;99561.73;2949607;80;21531;-89
2022/12/29 11:24:00;;;;;;;10.70;6.28;;;;;;;10.66;70.68;99549.84;2958932;78;21018;-87
2022/12/29 11:28:14;;;;;;;23.57;14.07;;;;;;;10.69;71.35;99550.88;2961547;79;21503;-86
2022/12/29 11:32:22;;;;;;;26.10;19.37;;;;;;;10.66;71.22;99546.71;2962605;79;20954;-86
2022/12/29 11:36:24;;;;;;;32.90;19.42;;;;;;;10.66;71.22;99545.38;2965847;79;20966;-86
2022/12/29 11:40:26;;;;;;;32.70;17.95;;;;;;;10.67;70.50;99549.72;2968075;79;21041;-86
2022/12/29 11:44:31;;;;;;;22.60;15.75;;;;;;;10.66;70.81;99551.17;2937626;79;21486;-86
2022/12/29 11:48:39;;;;;;;15.93;10.80;;;;;;;10.67;71.08;99553.70;2953660;79;20982;-86
2022/12/29 11:52:41;;;;;;;11.40;6.62;;;;;;;10.71;71.55;99556.41;2940798;79;21024;-86
2022/12/29 11:56:43;;;;;;;7.67;5.78;;;;;;;10.81;71.54;99558.23;2952045;80;20995;-86
2022/12/29 12:00:46;;;;;;;5.47;4.15;;;;;;;10.88;71.21;99551.33;2951955;79;21157;-86
2022/12/29 12:04:52;;;;;;;7.20;4.40;;;;;;;10.91;71.01;99555.02;2983208;78;21121;-86
2022/12/29 12:09:02;;;;;;;9.78;4.00;;;;;;;10.91;70.92;99559.02;2983281;78;20979;-86
2022/12/29 12:13:12;;;;;;;6.25;4.62;;;;;;;10.93;71.68;99551.72;2999492;78;21522;-86
2022/12/29 12:17:37;;;;;;;6.35;4.05;;;;;;;10.86;71.11;99540.81;2880509;81;21074;-86
2022/12/29 12:21:41;;;;;;;7.58;4.95;;;;;;;10.84;70.70;99541.45;2893600;80;21075;-86
2022/12/29 12:26:03;;;;;;;6.25;4.40;;;;;;;10.77;70.64;99535.53;2878538;80;21558;-86
2022/12/29 12:30:12;;;;;;;6.92;5.10;;;;;;;10.69;70.24;99538.44;2838162;82;21038;-86
2022/12/29 12:34:28;;;;;;;11.80;6.08;;;;;;;10.59;69.95;99522.98;2837022;82;21062;-86
2022/12/29 12:38:57;;;;;;;11.18;7.05;;;;;;;10.60;70.52;99527.32;2846773;83;21694;-86
2022/12/29 12:43:21;;;;;;;11.05;7.45;;;;;;;10.63;70.60;99531.52;2806328;83;21050;-86
2022/12/29 12:47:33;;;;;;;10.53;6.15;;;;;;;10.62;71.33;99537.83;2858926;80;21640;-86
2022/12/29 12:51:49;;;;;;;10.30;6.47;;;;;;;10.59;71.71;99528.30;2870621;82;21522;-86
2022/12/29 12:56:31;;;;;;;9.18;7.45;;;;;;;10.52;71.69;99520.09;2847432;82;21085;-86
2022/12/29 13:00:38;;;;;;;13.55;7.67;;;;;;;10.49;71.91;99512.38;2790762;83;21054;-86
2022/12/29 13:04:48;;;;;;;11.05;8.10;;;;;;;10.37;72.03;99510.35;2778827;83;21194;-86
2022/12/29 13:09:13;;;;;;;10.80;7.90;;;;;;;10.36;72.47;99527.28;2797595;83;21049;-86
2022/12/29 13:13:40;;;;;;;13.93;8.20;;;;;;;10.27;73.45;99534.30;2800065;82;21072;-86
2022/12/29 13:17:53;;;;;;;12.90;9.15;;;;;;;10.17;73.74;99538.80;2798509;79;21038;-87
2022/12/29 13:21:59;;;;;;;13.60;9.18;;;;;;;10.08;74.26;99544.47;2823165;81;21613;-86
2022/12/29 13:26:15;;;;;;;11.53;9.30;;;;;;;10.02;75.17;99546.84;2761758;83;21104;-86
2022/12/29 13:30:23;;;;;;;12.93;9.65;;;;;;;9.98;75.42;99550.27;2764627;85;21110;-87
2022/12/29 13:34:47;;;;;;;10.15;8.68;;;;;;;9.93;75.53;99559.16;2831880;81;21043;-86
2022/12/29 13:38:54;;;;;;;17.42;10.32;;;;;;;9.95;76.01;99565.16;2872408;81;20999;-86
2022/12/29 13:42:56;;;;;;;15.43;8.93;;;;;;;9.93;76.07;99553.84;2872372;80;21094;-87
2022/12/29 13:47:02;;;;;;;12.75;10.35;;;;;;;9.99;75.59;99558.58;2847568;80;21315;-86
2022/12/29 13:51:07;;;;;;;20.45;11.12;;;;;;;10.05;76.00;99559.84;2878021;81;21400;-86
2022/12/29 13:55:41;;;;;;;12.68;10.00;;;;;;;10.11;76.00;99568.10;2908742;80;21672;-86
2022/12/29 14:00:04;;;;;;;23.38;13.08;;;;;;;10.14;75.98;99563.01;2860409;80;21042;-86
2022/12/29 14:04:25;;;;;;;23.30;11.30;;;;;;;10.13;76.18;99554.18;2900562;80;21495;-86
2022/12/29 14:08:26;;;;;;;18.17;10.43;;;;;;;10.00;76.57;99560.27;2856588;80;21062;-86
2022/12/29 14:12:40;;;;;;;14.85;9.30;;;;;;;10.01;76.51;99559.28;2873630;79;20948;-86
2022/12/29 14:16:42;;;;;;;16.90;11.33;;;;;;;9.94;76.68;99559.03;2917552;78;21042;-86
2022/12/29 14:21:01;;;;;;;18.65;10.05;;;;;;;9.99;76.46;99553.27;2952344;78;21613;-86
2022/12/29 14:25:03;;;;;;;14.43;10.20;;;;;;;9.92;77.05;99552.98;2894549;81;21145;-86
2022/12/29 14:29:27;;;;;;;18.87;11.75;;;;;;;9.91;77.29;99555.80;2958792;79;21089;-86
2022/12/29 14:33:31;;;;;;;12.43;9.60;;;;;;;9.79;77.33;99541.81;2934127;78;20987;-86
2022/12/29 14:37:39;;;;;;;8.90;7.37;;;;;;;9.80;77.14;99535.53;2929238;78;21015;-86
2022/12/29 14:41:40;;;;;;;9.40;7.30;;;;;;;9.90;76.97;99535.02;2865309;81;21007;-86
2022/12/29 14:45:42;;;;;;;8.90;7.12;;;;;;;9.93;76.67;99533.44;2913563;79;21054;-85
2022/12/29 14:49:45;;;;;;;6.25;5.28;;;;;;;9.93;76.62;99541.41;2905023;79;21011;-85
2022/12/29 14:53:51;;;;;;;12.55;6.45;;;;;;;9.92;77.10;99554.81;2919795;79;21019;-85
2022/12/29 14:57:56;;;;;;;;;;;;;;;9.93;76.56;99560.01;2933047;78;21019;-85
2022/12/29 15:01:57;;;;;;;7.83;6.28;;;;;;;9.92;76.68;99558.80;2908825;80;20471;-85
2022/12/29 15:06:11;;;;;;;12.65;9.28;;;;;;;9.85;77.00;99559.84;2915914;79;21077;-85
2022/12/29 15:10:16;;;;;;;14.73;9.65;;;;;;;9.83;77.06;99559.15;2931255;79;22147;-85
2022/12/29 15:14:40;;;;;;;12.13;7.53;;;;;;;9.77;77.55;99565.84;2908551;79;20979;-85
2022/12/29 15:18:43;;;;;;;12.37;9.95;;;;;;;9.75;77.86;99565.15;2932459;79;21567;-85
2022/12/29 15:22:51;;;;;;;12.25;8.60;;;;;;;9.71;77.94;99565.91;2902019;80;20991;-85
2022/12/29 15:26:54;;;;;;;12.05;9.18;;;;;;;9.67;78.32;99574.31;2922516;80;21527;-85
2022/12/29 15:31:03;;;;;;;14.45;10.25;;;;;;;9.60;78.18;99574.02;2889285;80;21634;-85
2022/12/29 15:35:28;;;;;;;14.40;9.05;;;;;;;9.58;78.29;99576.79;2929412;79;20986;-85
2022/12/29 15:39:31;;;;;;;17.35;10.65;;;;;;;9.54;78.52;99578.55;2752859;84;21580;-85
2022/12/29 15:44:03;;;;;;;13.93;10.53;;;;;;;9.41;78.95;99578.77;2725983;84;37894;-85
2022/12/29 15:48:09;;;;;;;23.65;13.40;;;;;;;9.33;79.21;99582.10;2754977;85;21106;-85
2022/12/29 15:52:13;;;;;;;19.12;13.90;;;;;;;9.23;79.92;99583.40;2718928;83;21074;-85
2022/12/29 15:56:14;;;;;;;18.40;13.18;;;;;;;9.13;80.33;99583.87;2787819;83;21078;-85
2022/12/29 16:00:23;;;;;;;19.87;12.82;;;;;;;9.06;80.56;99573.45;2774246;83;21540;-85
2022/12/29 16:04:29;;;;;;;19.20;12.90;;;;;;;9.11;80.41;99577.86;2751054;84;21029;-85
2022/12/29 16:08:36;;;;;;;20.05;13.10;;;;;;;9.09;80.63;99577.16;2774236;84;21587;-85
2022/12/29 16:12:38;;;;;;;13.68;10.82;;;;;;;9.11;80.51;99577.35;2757671;84;21046;-85
2022/12/29 16:16:42;;;;;;;20.70;12.75;;;;;;;9.10;80.51;99577.00;2892413;80;21030;-85
2022/12/29 16:20:43;;;;;;;23.80;13.98;;;;;;;9.15;79.96;99579.27;2956537;80;21073;-85
2022/12/29 16:24:45;;;;;;;18.05;12.78;;;;;;;9.15;79.88;99581.91;2932147;78;21010;-85
2022/12/29 16:28:51;;;;;;;19.05;12.43;;;;;;;9.18;79.65;99580.81;2937003;79;21561;-85
2022/12/29 16:32:57;;;;;;;18.57;13.05;;;;;;;9.14;79.86;99577.59;2938076;80;21030;-85
2022/12/29 16:37:05;;;;;;;16.25;11.00;;;;;;;9.17;79.75;99580.47;2915735;79;21041;-85
2022/12/29 16:41:06;;;;;;;22.27;13.55;;;;;;;9.09;80.20;99587.77;2911403;78;20987;-85
2022/12/29 16:45:42;;;;;;;17.07;12.05;;;;;;;9.08;80.36;99592.72;2957367;79;21066;-85
2022/12/29 16:49:51;;;;;;;13.53;11.88;;;;;;;9.05;80.25;99596.47;2932818;78;21070;-85
2022/12/29 16:53:54;;;;;;;17.25;11.10;;;;;;;9.08;80.02;99598.02;2937630;79;21080;-85
2022/12/29 16:57:57;;;;;;;19.80;13.88;;;;;;;9.05;80.33;99594.31;2937329;78;21070;-85
2022/12/29 17:02:02;;;;;;;19.27;11.95;;;;;;;9.02;80.60;99598.06;2941228;78;21018;-85
2022/12/29 17:06:03;;;;;;;18.70;12.35;;;;;;;9.00;80.31;99593.38;2937481;79;21070;-85
2022/12/29 17:10:05;;;;;;;19.15;13.78;;;;;;;9.04;80.47;99593.46;2953399;78;21109;-85
2022/12/29 17:14:38;;;;;;;29.45;17.67;;;;;;;9.01;80.64;99601.69;2966427;78;21046;-85
2022/12/29 17:18:39;;;;;;;24.15;14.55;;;;;;;8.99;80.40;99593.03;2908431;79;21523;-85
2022/12/29 17:22:41;;;;;;;18.35;13.13;;;;;;;8.97;80.45;99593.15;2953743;78;21042;-85
2022/12/29 17:26:45;;;;;;;27.07;17.80;;;;;;;8.97;80.15;99597.63;2956860;80;21465;-85
2022/12/29 17:30:46;;;;;;;20.77;14.53;;;;;;;9.00;80.00;99601.34;2958212;78;21498;-85
2022/12/29 17:34:48;;;;;;;18.98;14.05;;;;;;;8.96;80.53;99610.04;2850400;78;21019;-85
2022/12/29 17:38:49;;;;;;;17.32;13.60;;;;;;;8.86;81.01;99614.47;2847332;78;21518;-87
2022/12/29 17:42:54;;;;;;;17.75;12.93;;;;;;;8.79;81.12;99616.80;2857849;80;21074;-86
2022/12/29 17:46:56;;;;;;;20.57;14.90;;;;;;;8.81;81.39;99621.48;2900040;79;21562;-86
2022/12/29 17:50:58;;;;;;;19.00;13.95;;;;;;;8.78;81.73;99634.16;2926145;79;21604;-88
2022/12/29 17:54:59;;;;;;;19.90;14.55;;;;;;;8.85;81.56;99632.68;2946019;80;21545;-87
2022/12/29 17:59:01;;;;;;;21.70;11.90;;;;;;;8.88;81.53;99636.39;2990578;78;21506;-87
2022/12/29 18:03:02;;;;;;;18.98;12.75;;;;;;;8.83;81.60;99629.29;2969171;78;21022;-89
2022/12/29 18:07:09;;;;;;;16.23;11.80;;;;;;;8.89;81.12;99638.55;2993585;78;21573;-88
2022/12/29 18:11:26;;;;;;;18.27;13.88;;;;;;;8.86;81.12;99644.97;2888916;80;21026;-87
2022/12/29 18:15:34;;;;;;;20.82;14.65;;;;;;;8.84;81.12;99641.58;2904859;79;21025;-87
2022/12/29 18:19:35;;;;;;;15.35;11.88;;;;;;;8.82;81.14;99654.13;2864552;81;21552;-87
2022/12/29 18:23:36;;;;;;;17.23;12.05;;;;;;;8.76;81.26;99658.64;2917652;80;20979;-86
2022/12/29 18:27:37;;;;;;;18.65;12.65;;;;;;;8.71;81.55;99661.20;2906496;80;21479;-87
2022/12/29 18:31:39;;;;;;;17.00;13.35;;;;;;;8.76;81.23;99649.36;2901870;80;21015;-87
2022/12/29 18:35:45;;;;;;;24.05;15.15;;;;;;;8.73;81.48;99652.27;2838774;81;21010;-87
2022/12/29 18:39:47;;;;;;;15.60;12.13;;;;;;;8.75;81.48;99657.81;2903264;80;21663;-87
2022/12/29 18:43:48;;;;;;;14.73;11.93;;;;;;;8.74;81.53;99655.28;2890460;80;21083;-87
2022/12/29 18:47:50;;;;;;;17.05;12.20;;;;;;;8.75;81.88;99652.98;2875293;81;21574;-88
2022/12/29 18:51:52;;;;;;;17.50;12.00;;;;;;;8.75;81.83;99654.31;2865849;81;21472;-88
2022/12/29 18:55:56;;;;;;;16.02;11.88;;;;;;;8.75;81.96;99650.33;2868336;81;21027;-89
2022/12/29 18:59:57;;;;;;;18.17;13.40;;;;;;;8.78;81.95;99648.73;2867674;81;21014;-88
2022/12/29 19:03:58;;;;;;;16.42;13.30;;;;;;;8.75;81.90;99649.86;2862008;81;21074;-87
2022/12/29 19:07:59;;;;;;;21.42;13.80;;;;;;;8.79;81.58;99651.27;2838220;83;21027;-88
2022/12/29 19:12:00;;;;;;;16.42;12.00;;;;;;;8.85;81.05;99649.92;2870883;81;21054;-89
2022/12/29 19:16:02;;;;;;;26.52;17.70;;;;;;;8.89;80.77;99661.09;2882229;80;21046;-89
2022/12/29 19:20:04;;;;;;;22.60;14.38;;;;;;;8.82;80.90;99658.97;2927924;80;21542;-88
2022/12/29 19:24:06;;;;;;;16.60;11.50;;;;;;;8.80;80.65;99660.91;2920578;80;21031;-88
2022/12/29 19:28:24;;;;;;;18.75;11.83;;;;;;;8.81;81.05;99666.57;2908683;80;21038;-89
2022/12/29 19:32:25;;;;;;;20.72;14.00;;;;;;;8.89;80.43;99668.58;2918529;80;21006;-89
2022/12/29 19:36:27;;;;;;;15.83;11.40;;;;;;;8.85;80.60;99667.98;2933072;80;21436;-89
2022/12/29 19:40:28;;;;;;;17.77;11.68;;;;;;;8.82;80.81;99666.92;2932824;80;21298;-88
2022/12/29 19:44:30;;;;;;;18.40;13.48;;;;;;;8.77;81.12;99670.92;2872988;79;21030;-89
2022/12/29 19:48:31;;;;;;;17.40;12.82;;;;;;;8.76;81.46;99665.27;2997351;78;21033;-87
2022/12/29 19:52:33;;;;;;;18.55;13.15;;;;;;;8.75;81.61;99666.23;2976167;79;21018;-89